Terminal Aerodrome Forecast
Issued by NWS

Current Version | Previous Version | Text Only | Print | Product List | Glossary On
Versions: 1 2 3 4 5 6 7 8 9 10 11 12 13
000
FTUS44 KLIX 022340
TAFMSY
TAF
KMSY 022340Z 0300/0324 08011KT P6SM OVC110
     FM030600 06010KT P6SM VCSH OVC060
     FM030900 06013G21KT P6SM OVC080 PROB30 0315/0317 4SM -RA OVC025
     FM031700 10016G24KT P6SM OVC050 PROB30 0317/0323 4SM -RA OVC025
     FM032300 10014KT P6SM -RA OVC030=

USA.gov is the U.S. government's official web portal to all federal, state and local government web resources and services.